Time;durP1;ratioP1;P1;durP2;ratioP2;P2;SDS_P1;SDS_P2;PMS_P1;PMS_P2;Temp;Humidity;BMP_temperature;BMP_pressure;BME280_temperature;BME280_humidity;BME280_pressure;Samples;Min_cycle;Max_cycle;Signal;HPM_P1;HPM_P2
2022/09/22 00:01:35;;;;;;;27.35;17.38;;;;;;;7.42;92.24;102328.09;5050462;28;20053;-84
2022/09/22 00:04:04;;;;;;;26.98;17.05;;;;;;;7.40;92.50;102317.47;5047973;28;20211;-84
2022/09/22 00:06:42;;;;;;;30.23;18.05;;;;;;;7.39;92.80;102318.38;5039120;28;20029;-84
2022/09/22 00:09:11;;;;;;;28.48;17.25;;;;;;;7.39;92.10;102323.75;5051567;28;20056;-84
2022/09/22 00:11:41;;;;;;;30.17;18.63;;;;;;;7.38;92.18;102313.09;5051365;28;20118;-85
2022/09/22 00:14:19;;;;;;;26.60;17.10;;;;;;;7.39;91.92;102314.84;5052379;28;20047;-85
2022/09/22 00:16:51;;;;;;;27.38;16.02;;;;;;;7.38;92.79;102314.00;5050638;28;20170;-85
2022/09/22 00:19:20;;;;;;;27.48;16.15;;;;;;;7.35;92.50;102314.97;5049770;28;20471;-85
2022/09/22 00:21:46;;;;;;;27.20;16.83;;;;;;;7.34;92.34;102313.22;5052800;28;20033;-85
2022/09/22 00:24:11;;;;;;;28.88;16.52;;;;;;;7.31;91.77;102307.97;5047356;28;20048;-85
2022/09/22 00:26:38;;;;;;;28.75;15.80;;;;;;;7.31;91.66;102315.13;5038727;28;20127;-85
2022/09/22 00:29:08;;;;;;;26.42;16.27;;;;;;;7.29;91.59;102315.19;5045861;28;20063;-85
2022/09/22 00:31:36;;;;;;;25.45;15.75;;;;;;;7.26;92.56;102309.97;5050986;28;20041;-85
2022/09/22 00:34:02;;;;;;;27.27;16.88;;;;;;;7.27;92.30;102306.34;5037681;28;20496;-85
2022/09/22 00:36:27;;;;;;;27.00;17.33;;;;;;;7.25;92.38;102308.22;5034770;28;20379;-85
2022/09/22 00:38:55;;;;;;;30.10;16.25;;;;;;;7.22;91.24;102313.66;5047399;28;20457;-85
2022/09/22 00:41:26;;;;;;;26.30;15.80;;;;;;;7.19;92.17;102311.09;5047652;28;20314;-85
2022/09/22 00:44:17;;;;;;;29.33;16.27;;;;;;;7.22;92.03;102311.00;5050787;28;20024;-85
2022/09/22 00:46:46;;;;;;;29.33;18.25;;;;;;;7.20;91.89;102307.47;5050803;28;20120;-85
2022/09/22 00:49:14;;;;;;;27.97;16.57;;;;;;;7.18;92.07;102304.00;5049159;28;20032;-85
2022/09/22 00:51:42;;;;;;;31.17;18.13;;;;;;;7.17;92.20;102302.25;5051343;28;20542;-85
2022/09/22 00:54:11;;;;;;;30.00;15.82;;;;;;;7.12;92.29;102307.75;5051295;28;20044;-85
2022/09/22 00:56:42;;;;;;;28.73;17.30;;;;;;;7.09;92.48;102299.84;5050081;28;20047;-85
2022/09/22 00:59:14;;;;;;;27.58;17.25;;;;;;;7.05;91.92;102300.88;5046042;28;20029;-85
2022/09/22 01:01:40;;;;;;;25.75;16.17;;;;;;;7.04;92.11;102295.59;5049557;28;20375;-84
2022/09/22 01:04:06;;;;;;;28.48;16.40;;;;;;;7.04;92.43;102298.25;5049097;28;20115;-83
2022/09/22 01:06:34;;;;;;;25.48;15.63;;;;;;;7.01;92.56;102288.53;5048590;28;20591;-83
2022/09/22 01:09:00;;;;;;;25.17;15.55;;;;;;;6.98;92.88;102285.97;5043214;28;20520;-83
2022/09/22 01:11:28;;;;;;;25.92;15.50;;;;;;;6.96;92.07;102280.69;5045581;28;20049;-83
2022/09/22 01:14:17;;;;;;;28.85;15.48;;;;;;;6.98;92.35;102281.53;5050840;28;20117;-83
2022/09/22 01:17:07;;;;;;;25.50;15.73;;;;;;;6.96;92.10;102275.34;5049612;28;20044;-83
2022/09/22 01:20:03;;;;;;;26.40;15.90;;;;;;;6.95;91.73;102275.41;5048241;28;20075;-83
2022/09/22 01:22:46;;;;;;;27.42;16.10;;;;;;;6.95;92.62;102270.06;5038443;28;20181;-83
2022/09/22 01:25:49;;;;;;;25.92;14.75;;;;;;;6.94;91.95;102271.88;5050727;28;20103;-83
2022/09/22 01:28:42;;;;;;;26.38;16.67;;;;;;;6.91;92.40;102279.09;5049198;28;20123;-83
2022/09/22 01:31:17;;;;;;;33.53;17.50;;;;;;;6.88;91.93;102269.41;5046354;28;20029;-83
2022/09/22 01:34:04;;;;;;;28.80;16.67;;;;;;;6.88;91.63;102271.19;5043177;28;20497;-83
2022/09/22 01:36:32;;;;;;;26.85;17.02;;;;;;;6.87;91.78;102266.78;5037087;28;20029;-83
2022/09/22 01:39:09;;;;;;;26.75;17.05;;;;;;;6.87;91.90;102261.44;5050170;28;20028;-83
2022/09/22 01:41:52;;;;;;;27.42;15.98;;;;;;;6.85;92.14;102264.16;5038135;28;20057;-83
2022/09/22 01:44:28;;;;;;;26.60;16.35;;;;;;;6.85;92.17;102263.28;5048665;28;20032;-83
2022/09/22 01:47:09;;;;;;;28.77;16.98;;;;;;;6.84;92.04;102259.75;5044736;28;20031;-83
2022/09/22 01:49:39;;;;;;;25.42;14.88;;;;;;;6.81;91.97;102258.06;5047591;28;20113;-83
2022/09/22 01:52:19;;;;;;;25.60;15.73;;;;;;;6.82;92.15;102256.25;5050978;28;20025;-83
2022/09/22 01:54:58;;;;;;;26.52;16.00;;;;;;;6.82;92.18;102253.56;5049647;28;20028;-83
2022/09/22 01:57:37;;;;;;;28.17;18.20;;;;;;;6.80;92.16;102252.75;5049870;28;20035;-83
2022/09/22 02:00:06;;;;;;;26.20;16.58;;;;;;;6.79;91.94;102254.56;5043468;28;20033;-83
2022/09/22 02:02:41;;;;;;;27.65;16.80;;;;;;;6.77;91.86;102244.84;5045122;28;20036;-83
2022/09/22 02:05:13;;;;;;;28.10;16.13;;;;;;;6.74;91.45;102248.50;5044480;28;20029;-83
2022/09/22 02:07:44;;;;;;;29.70;17.15;;;;;;;6.76;91.79;102243.97;5031380;28;20033;-84
2022/09/22 02:10:14;;;;;;;27.10;17.70;;;;;;;6.73;91.93;102244.06;5040127;28;20059;-84
2022/09/22 02:12:39;;;;;;;26.08;16.23;;;;;;;6.72;91.75;102242.34;5037460;28;20045;-84
2022/09/22 02:15:58;;;;;;;25.25;16.27;;;;;;;6.70;91.49;102237.97;5049419;28;20025;-84
2022/09/22 02:18:00;;;;;;;28.17;16.65;;;;;;;6.70;91.62;102229.97;5049233;28;20063;-84
2022/09/22 02:20:26;;;;;;;26.30;15.85;;;;;;;6.71;91.44;102235.25;5030319;28;20057;-84
2022/09/22 02:22:52;;;;;;;28.30;16.95;;;;;;;6.70;91.63;102229.97;5049425;28;20091;-84
2022/09/22 02:25:19;;;;;;;30.63;16.77;;;;;;;6.69;91.66;102226.44;5050899;28;20021;-84
2022/09/22 02:27:46;;;;;;;28.73;15.18;;;;;;;6.64;91.27;102221.22;5049096;28;20032;-84
2022/09/22 02:30:13;;;;;;;25.40;15.98;;;;;;;6.62;91.39;102231.09;5039168;28;20097;-84
2022/09/22 02:32:44;;;;;;;26.65;15.77;;;;;;;6.59;91.37;102220.53;5033744;28;20037;-84
2022/09/22 02:35:09;;;;;;;27.33;15.48;;;;;;;6.58;91.94;102217.91;5036848;28;20095;-84
2022/09/22 02:37:48;;;;;;;26.45;16.25;;;;;;;6.56;90.86;102215.28;5030562;28;20443;-84
2022/09/22 02:40:31;;;;;;;27.73;14.93;;;;;;;6.57;91.26;102222.38;5031606;28;20109;-84
2022/09/22 02:43:30;;;;;;;27.27;15.50;;;;;;;6.55;91.34;102223.38;5035388;28;20037;-84
2022/09/22 02:45:58;;;;;;;26.10;15.82;;;;;;;6.52;91.22;102223.47;5045995;28;20472;-84
2022/09/22 02:48:29;;;;;;;24.95;15.30;;;;;;;6.49;91.23;102208.41;5049208;28;20063;-84
2022/09/22 02:50:54;;;;;;;27.88;17.20;;;;;;;6.52;91.36;102204.78;5040559;28;20025;-84
2022/09/22 02:53:20;;;;;;;26.95;15.95;;;;;;;6.51;91.42;102206.56;5049000;28;20040;-84
2022/09/22 02:55:46;;;;;;;24.88;15.20;;;;;;;6.50;91.21;102201.25;5048469;28;20037;-84
2022/09/22 02:58:15;;;;;;;26.52;16.60;;;;;;;6.49;91.00;102213.75;5044439;28;20080;-84
2022/09/22 03:00:42;;;;;;;27.42;17.05;;;;;;;6.49;90.78;102205.75;5046757;28;20036;-84
2022/09/22 03:03:09;;;;;;;28.33;17.25;;;;;;;6.48;90.83;102202.19;5048299;28;20029;-84
2022/09/22 03:05:34;;;;;;;25.05;16.48;;;;;;;6.46;90.98;102213.88;5047207;28;20021;-84
2022/09/22 03:08:00;;;;;;;28.65;17.15;;;;;;;6.44;91.44;102200.56;5049410;28;20178;-84
2022/09/22 03:10:25;;;;;;;28.73;17.58;;;;;;;6.41;91.09;102205.13;5047659;28;20024;-84
2022/09/22 03:12:51;;;;;;;26.50;16.08;;;;;;;6.40;91.42;102198.03;5038878;28;20049;-84
2022/09/22 03:15:16;;;;;;;28.33;16.98;;;;;;;6.39;90.98;102196.31;5043084;28;20037;-84
2022/09/22 03:17:41;;;;;;;26.30;16.40;;;;;;;6.42;91.91;102204.22;5042684;28;20048;-84
2022/09/22 03:20:10;;;;;;;29.77;17.35;;;;;;;6.39;91.73;102197.16;5046280;28;20128;-84
2022/09/22 03:22:36;;;;;;;25.75;16.25;;;;;;;6.37;91.79;102198.13;5047519;28;20509;-84
2022/09/22 03:25:02;;;;;;;26.42;15.63;;;;;;;6.33;91.13;102188.50;5040359;28;20037;-84
2022/09/22 03:27:28;;;;;;;28.63;16.77;;;;;;;6.32;91.30;102194.75;5047178;28;20063;-84
2022/09/22 03:29:54;;;;;;;26.27;16.80;;;;;;;6.28;91.15;102191.31;5045333;28;20117;-84
2022/09/22 03:32:21;;;;;;;27.00;16.63;;;;;;;6.29;91.65;102199.25;5050833;28;20039;-84
2022/09/22 03:34:47;;;;;;;29.60;17.50;;;;;;;6.28;91.24;102186.84;5050255;28;20033;-84
2022/09/22 03:37:13;;;;;;;26.98;15.63;;;;;;;6.26;90.95;102191.34;5053106;28;20511;-84
2022/09/22 03:39:38;;;;;;;25.42;15.43;;;;;;;6.27;91.27;102193.13;5049955;28;20064;-84
2022/09/22 03:42:04;;;;;;;27.00;16.25;;;;;;;6.28;91.13;102191.31;5053357;28;20060;-84
2022/09/22 03:44:29;;;;;;;27.75;16.67;;;;;;;6.26;91.44;102180.69;5050244;28;20028;-84
2022/09/22 03:46:54;;;;;;;28.08;17.20;;;;;;;6.26;90.89;102182.50;5050633;28;20435;-84
2022/09/22 03:49:20;;;;;;;26.58;16.95;;;;;;;6.24;91.23;102187.03;5050469;28;20119;-84
2022/09/22 03:51:45;;;;;;;29.05;16.85;;;;;;;6.24;91.47;102182.53;5034294;28;20037;-84
2022/09/22 03:54:11;;;;;;;27.95;16.85;;;;;;;6.20;91.56;102186.22;5040005;28;20025;-84
2022/09/22 03:56:37;;;;;;;28.27;16.00;;;;;;;6.19;91.61;102184.47;5043793;28;20099;-84
2022/09/22 03:59:03;;;;;;;25.27;15.50;;;;;;;6.16;91.30;102181.06;5033757;28;20038;-85
2022/09/22 04:01:28;;;;;;;25.40;14.40;;;;;;;6.14;91.10;102185.59;5044744;28;20071;-84
2022/09/22 04:03:54;;;;;;;25.50;14.18;;;;;;;6.12;91.07;102185.63;5052191;28;20025;-84
2022/09/22 04:06:19;;;;;;;25.90;15.02;;;;;;;6.07;91.38;102172.41;5047371;28;20078;-84
2022/09/22 04:08:45;;;;;;;25.02;15.38;;;;;;;6.09;91.39;102173.25;5050901;28;20036;-84
2022/09/22 04:11:10;;;;;;;25.73;15.32;;;;;;;6.08;91.53;102173.31;5049269;28;20383;-84
2022/09/22 04:13:35;;;;;;;26.73;14.85;;;;;;;6.07;91.79;102174.22;5048392;28;20070;-84
2022/09/22 04:16:01;;;;;;;23.85;14.63;;;;;;;6.03;91.64;102173.47;5047059;28;20044;-84
2022/09/22 04:18:28;;;;;;;24.48;14.75;;;;;;;6.02;91.23;102170.81;5045663;28;20060;-84
2022/09/22 04:20:57;;;;;;;25.02;14.95;;;;;;;6.01;91.28;102163.75;5046787;28;20036;-84
2022/09/22 04:23:24;;;;;;;24.38;14.38;;;;;;;6.01;90.75;102171.75;5039317;28;20023;-84
2022/09/22 04:25:50;;;;;;;24.75;14.38;;;;;;;6.02;91.05;102168.16;5064483;28;20029;-84
2022/09/22 04:28:15;;;;;;;28.83;14.18;;;;;;;6.00;91.02;102164.66;5032544;28;20099;-84
2022/09/22 04:30:42;;;;;;;24.33;16.13;;;;;;;5.99;91.16;102168.25;5043372;28;20029;-84
2022/09/22 04:33:08;;;;;;;25.02;14.65;;;;;;;5.98;90.96;102162.06;5046668;28;20108;-84
2022/09/22 04:35:33;;;;;;;28.20;16.88;;;;;;;5.98;90.67;102167.38;5049944;28;20071;-84
2022/09/22 04:37:59;;;;;;;25.77;16.77;;;;;;;5.99;90.99;102170.91;5050821;28;20021;-84
2022/09/22 04:40:25;;;;;;;24.95;15.50;;;;;;;5.97;90.85;102167.41;5045320;28;20136;-84
2022/09/22 04:42:50;;;;;;;29.67;16.58;;;;;;;5.95;91.46;102168.31;5050927;28;20116;-84
2022/09/22 04:45:16;;;;;;;27.00;16.35;;;;;;;5.92;90.79;102160.41;5049242;28;20036;-84
2022/09/22 04:47:50;;;;;;;27.00;17.00;;;;;;;5.92;90.87;102171.09;5048686;28;20029;-84
2022/09/22 04:50:17;;;;;;;26.05;15.13;;;;;;;5.89;90.35;102163.19;5048937;28;20035;-84
2022/09/22 04:52:51;;;;;;;26.80;17.30;;;;;;;5.86;90.55;102163.31;5035662;28;20176;-84
2022/09/22 04:55:17;;;;;;;30.20;16.70;;;;;;;5.90;91.35;102162.28;5039430;28;20034;-84
2022/09/22 04:57:53;;;;;;;26.05;15.75;;;;;;;5.88;91.09;102161.44;5046319;28;20115;-84
2022/09/22 05:00:20;;;;;;;28.48;16.35;;;;;;;5.86;90.95;102159.78;5049129;28;20032;-84
2022/09/22 05:02:45;;;;;;;25.67;15.50;;;;;;;5.85;90.54;102164.22;5049059;28;20028;-84
2022/09/22 05:05:11;;;;;;;27.15;16.67;;;;;;;5.84;90.56;102161.59;5046698;28;20397;-84
2022/09/22 05:07:44;;;;;;;24.75;15.95;;;;;;;5.84;91.34;102164.25;5034157;28;20504;-84
2022/09/22 05:10:10;;;;;;;26.65;16.95;;;;;;;5.84;91.01;102166.94;5046280;28;20025;-84
2022/09/22 05:12:39;;;;;;;26.33;16.30;;;;;;;5.85;91.37;102174.03;5044873;28;20140;-84
2022/09/22 05:15:06;;;;;;;26.63;16.90;;;;;;;5.85;91.76;102174.88;5050097;28;20111;-84
2022/09/22 05:17:32;;;;;;;27.50;17.42;;;;;;;5.83;90.79;102162.50;5049675;28;20163;-84
2022/09/22 05:19:57;;;;;;;26.73;17.35;;;;;;;5.84;91.02;102177.59;5044716;28;20060;-84
2022/09/22 05:22:22;;;;;;;26.60;16.98;;;;;;;5.83;91.21;102171.41;5049707;28;20129;-84
2022/09/22 05:24:48;;;;;;;30.02;15.88;;;;;;;5.81;91.18;102170.56;5047462;28;20029;-84
2022/09/22 05:27:13;;;;;;;31.27;16.60;;;;;;;5.77;90.94;102176.94;5049013;28;20022;-84
2022/09/22 05:29:39;;;;;;;26.20;17.52;;;;;;;5.74;91.12;102177.91;5046352;28;20502;-84
2022/09/22 05:32:04;;;;;;;27.02;18.15;;;;;;;5.73;91.25;102175.28;5048322;28;20025;-84
2022/09/22 05:34:30;;;;;;;26.75;17.20;;;;;;;5.73;91.54;102176.16;5048946;28;20140;-84
2022/09/22 05:36:55;;;;;;;30.75;16.83;;;;;;;5.72;90.87;102171.72;5048569;28;20029;-84
2022/09/22 05:39:20;;;;;;;26.75;16.00;;;;;;;5.71;90.61;102177.13;5042756;28;20033;-84
2022/09/22 05:41:48;;;;;;;27.88;18.65;;;;;;;5.73;91.50;102183.28;5040904;28;20444;-84
2022/09/22 05:44:14;;;;;;;26.08;16.58;;;;;;;5.71;91.18;102188.69;5046227;28;20063;-84
2022/09/22 05:46:39;;;;;;;28.05;17.27;;;;;;;5.68;90.72;102187.88;5043017;28;20378;-84
2022/09/22 05:49:04;;;;;;;27.42;17.25;;;;;;;5.69;91.31;102189.63;5046069;28;20020;-84
2022/09/22 05:51:30;;;;;;;27.15;17.63;;;;;;;5.69;92.20;102185.16;5044656;28;20020;-84
2022/09/22 05:53:55;;;;;;;25.75;16.50;;;;;;;5.70;92.48;102188.72;5042834;28;20104;-84
2022/09/22 05:56:20;;;;;;;27.42;17.33;;;;;;;5.71;92.22;102188.69;5043362;28;20021;-84
2022/09/22 05:58:46;;;;;;;26.88;16.25;;;;;;;5.71;92.05;102177.13;5039590;28;20388;-84
2022/09/22 06:01:11;;;;;;;28.02;17.27;;;;;;;5.72;92.23;102178.88;5042751;28;20025;-84
2022/09/22 06:03:37;;;;;;;27.70;17.75;;;;;;;5.74;92.04;102180.56;5039792;28;20096;-84
2022/09/22 06:06:02;;;;;;;29.60;17.70;;;;;;;5.76;92.38;102181.38;5047070;28;20040;-84
2022/09/22 06:08:27;;;;;;;28.77;17.02;;;;;;;5.80;92.32;102182.19;5045029;28;20039;-84
2022/09/22 06:10:53;;;;;;;27.52;17.38;;;;;;;5.84;93.45;102186.50;5044968;28;20053;-84
2022/09/22 06:13:18;;;;;;;30.67;18.88;;;;;;;5.91;94.74;102184.50;5044986;28;20340;-84
2022/09/22 06:15:46;;;;;;;29.77;18.70;;;;;;;5.97;94.51;102191.44;5045949;28;20025;-84
2022/09/22 06:18:12;;;;;;;28.02;17.88;;;;;;;6.00;94.58;102186.88;5041811;28;20090;-84
2022/09/22 06:20:37;;;;;;;30.88;18.70;;;;;;;6.04;94.62;102177.84;5044208;28;20033;-84
2022/09/22 06:23:03;;;;;;;28.13;18.38;;;;;;;6.10;95.88;102182.13;5041168;28;20099;-84
2022/09/22 06:25:28;;;;;;;30.02;19.85;;;;;;;6.18;96.11;102179.19;5043408;28;20040;-84
2022/09/22 06:28:03;;;;;;;29.33;19.58;;;;;;;6.24;96.75;102171.88;5045024;28;20083;-84
2022/09/22 06:30:29;;;;;;;28.55;18.08;;;;;;;6.34;97.15;102174.22;5056737;28;20020;-84
2022/09/22 06:32:55;;;;;;;33.28;20.77;;;;;;;6.40;97.13;102174.00;5042736;28;20481;-84
2022/09/22 06:35:20;;;;;;;30.85;20.80;;;;;;;6.49;97.69;102184.38;5045424;28;20086;-84
2022/09/22 06:37:55;;;;;;;29.00;19.92;;;;;;;6.57;97.57;102182.28;5042602;28;20119;-85
2022/09/22 06:40:20;;;;;;;31.13;20.85;;;;;;;6.68;97.93;102175.69;5044209;28;20330;-84
2022/09/22 06:42:46;;;;;;;29.10;20.73;;;;;;;6.76;97.73;102181.66;5043940;28;20037;-84
2022/09/22 06:45:13;;;;;;;32.25;22.00;;;;;;;6.84;98.48;102179.59;5043350;28;20433;-84
2022/09/22 06:47:41;;;;;;;31.90;21.17;;;;;;;6.95;98.16;102176.50;5042224;28;20037;-84
2022/09/22 06:50:08;;;;;;;30.98;20.95;;;;;;;7.04;97.90;102180.66;5050640;28;20086;-84
2022/09/22 06:52:35;;;;;;;32.17;21.70;;;;;;;7.12;97.33;102181.25;5049025;28;20021;-84
2022/09/22 06:55:01;;;;;;;32.42;20.70;;;;;;;7.19;97.25;102177.41;5050559;28;20025;-84
2022/09/22 06:57:31;;;;;;;32.00;21.60;;;;;;;7.30;97.78;102180.53;5049769;28;20021;-84
2022/09/22 06:59:57;;;;;;;30.92;19.73;;;;;;;7.39;98.12;102183.78;5048754;28;20369;-84
2022/09/22 07:02:26;;;;;;;31.13;22.23;;;;;;;7.46;98.90;102178.13;5048982;28;20070;-84
2022/09/22 07:04:53;;;;;;;32.33;21.23;;;;;;;7.55;98.61;102173.38;5048620;28;20039;-84
2022/09/22 07:07:18;;;;;;;33.33;21.70;;;;;;;7.64;99.01;102179.25;5032777;28;20097;-84
2022/09/22 07:09:45;;;;;;;33.80;21.95;;;;;;;7.71;98.93;102169.16;5034294;28;20025;-84
2022/09/22 07:12:10;;;;;;;29.95;21.40;;;;;;;7.79;98.46;102166.16;5033842;28;20421;-84
2022/09/22 07:14:35;;;;;;;31.55;21.88;;;;;;;7.89;98.78;102175.56;5043448;28;20035;-85
2022/09/22 07:17:01;;;;;;;33.35;21.17;;;;;;;7.95;98.17;102167.28;5054193;28;20039;-85
2022/09/22 07:19:26;;;;;;;31.70;21.40;;;;;;;8.01;98.17;102177.75;5052503;28;20067;-84
2022/09/22 07:21:51;;;;;;;31.98;21.73;;;;;;;8.08;98.01;102170.31;5052402;28;20028;-84
2022/09/22 07:24:16;;;;;;;29.48;19.60;;;;;;;8.17;98.02;102169.06;5053910;28;20115;-84
2022/09/22 07:26:42;;;;;;;29.90;20.88;;;;;;;8.25;98.68;102171.44;5052522;28;20102;-84
2022/09/22 07:29:12;;;;;;;32.42;19.50;;;;;;;8.32;99.19;102163.06;5052396;28;20027;-84
2022/09/22 07:31:38;;;;;;;30.10;18.27;;;;;;;8.40;98.32;102168.97;5052347;28;20021;-84
2022/09/22 07:34:03;;;;;;;31.40;18.25;;;;;;;8.46;98.68;102156.28;5040008;28;20041;-84
2022/09/22 07:36:30;;;;;;;31.15;18.92;;;;;;;8.54;99.39;102163.03;5049124;28;20090;-84
2022/09/22 07:39:02;;;;;;;30.00;19.15;;;;;;;8.64;99.27;102162.63;5032447;28;20112;-84
2022/09/22 07:41:29;;;;;;;28.85;18.80;;;;;;;8.71;99.24;102161.41;5032515;28;20452;-84
2022/09/22 07:43:56;;;;;;;26.35;16.73;;;;;;;8.78;98.50;102167.38;5033684;28;20025;-84
2022/09/22 07:46:22;;;;;;;27.83;17.17;;;;;;;8.85;98.42;102164.34;5033552;28;20032;-84
2022/09/22 07:48:47;;;;;;;27.52;16.90;;;;;;;8.93;98.58;102174.72;5037862;28;20739;-84
2022/09/22 07:51:18;;;;;;;27.48;16.52;;;;;;;9.00;98.07;102167.28;5042073;28;20090;-84
2022/09/22 07:53:46;;;;;;;26.80;17.95;;;;;;;9.06;98.09;102167.88;5035670;28;20107;-84
2022/09/22 07:56:14;;;;;;;26.95;16.17;;;;;;;9.11;97.67;102162.31;5039805;28;20037;-84
2022/09/22 07:58:44;;;;;;;25.33;16.70;;;;;;;9.19;97.79;102170.00;5034209;28;20068;-84
2022/09/22 08:01:10;;;;;;;27.23;15.95;;;;;;;9.26;97.23;102161.59;5041038;28;20124;-84
2022/09/22 08:03:36;;;;;;;26.50;16.25;;;;;;;9.32;97.80;102160.44;5044970;28;20435;-84
2022/09/22 08:06:08;;;;;;;24.63;15.10;;;;;;;9.39;97.17;102161.03;5043608;28;20033;-84
2022/09/22 08:08:34;;;;;;;25.55;14.15;;;;;;;9.44;96.80;102151.81;5042872;28;20128;-84
2022/09/22 08:11:12;;;;;;;23.45;12.60;;;;;;;9.52;96.82;102158.63;5048498;28;20108;-84
2022/09/22 08:13:38;;;;;;;25.08;14.07;;;;;;;9.60;95.72;102161.81;5034595;28;20058;-84
2022/09/22 08:16:04;;;;;;;24.65;12.75;;;;;;;9.69;95.71;102150.59;5029206;28;20103;-84
2022/09/22 08:18:31;;;;;;;24.63;12.95;;;;;;;9.75;95.26;102153.00;5033789;28;20124;-84
2022/09/22 08:20:57;;;;;;;24.83;12.48;;;;;;;9.88;95.21;102138.97;5039118;28;20021;-84
2022/09/22 08:23:22;;;;;;;23.67;12.70;;;;;;;9.96;96.16;102156.44;5033827;28;20040;-84
2022/09/22 08:25:49;;;;;;;27.88;11.98;;;;;;;9.99;92.85;102144.69;5032084;28;20045;-84
2022/09/22 08:28:14;;;;;;;23.92;14.07;;;;;;;10.05;94.11;102149.75;5038706;28;20116;-85
2022/09/22 08:30:44;;;;;;;23.73;12.52;;;;;;;10.07;94.38;102145.19;5038394;28;20116;-84
2022/09/22 08:33:10;;;;;;;25.55;13.52;;;;;;;10.13;93.95;102139.50;5037759;28;20140;-84
2022/09/22 08:35:35;;;;;;;25.45;14.35;;;;;;;10.20;93.25;102133.78;5037526;28;20564;-84
2022/09/22 08:38:02;;;;;;;23.63;12.68;;;;;;;10.24;92.76;102135.38;5039249;28;20036;-84
2022/09/22 08:40:29;;;;;;;21.85;11.07;;;;;;;10.28;91.83;102135.16;5041231;28;20117;-84
2022/09/22 08:42:55;;;;;;;21.50;9.75;;;;;;;10.31;89.47;102136.81;5043770;28;20033;-84
2022/09/22 08:45:33;;;;;;;19.90;9.65;;;;;;;10.32;87.62;102141.22;5038218;28;20029;-84
2022/09/22 08:53:55;;;;;;;21.35;8.65;;;;;;;10.53;88.02;102141.97;5037001;28;20084;-85
2022/09/22 08:56:21;;;;;;;19.30;8.73;;;;;;;10.55;85.32;102139.19;5033921;28;20554;-85
2022/09/22 08:59:25;;;;;;;18.23;7.43;;;;;;;10.58;85.20;102149.78;5039210;28;20028;-84
2022/09/22 09:02:06;;;;;;;18.95;7.93;;;;;;;10.66;85.82;102144.88;5040100;28;20037;-84
2022/09/22 09:04:41;;;;;;;17.52;6.75;;;;;;;10.69;82.78;102150.09;5039679;28;20497;-85
2022/09/22 09:07:14;;;;;;;18.35;7.97;;;;;;;10.74;83.20;102150.72;5038533;28;20098;-85
2022/09/22 09:10:11;;;;;;;17.77;6.82;;;;;;;10.78;83.93;102152.28;5037417;28;20388;-85
2022/09/22 09:12:55;;;;;;;19.75;8.10;;;;;;;10.89;86.24;102148.16;5032817;28;20055;-85
2022/09/22 09:15:40;;;;;;;17.80;6.82;;;;;;;10.94;83.16;102151.47;5035283;28;20033;-85
2022/09/22 09:18:14;;;;;;;15.90;6.35;;;;;;;11.05;83.87;102153.56;5037820;28;20139;-85
2022/09/22 09:20:48;;;;;;;13.10;5.13;;;;;;;11.08;81.17;102151.56;5040800;28;20029;-85
2022/09/22 09:23:18;;;;;;;15.45;5.00;;;;;;;11.14;82.11;102151.25;5038209;28;20040;-84
2022/09/22 09:25:48;;;;;;;13.77;4.90;;;;;;;11.18;80.53;102150.13;5030752;28;20033;-84
2022/09/22 09:28:18;;;;;;;14.27;5.88;;;;;;;11.37;82.92;102144.56;5040449;28;20099;-84
2022/09/22 09:30:52;;;;;;;18.80;5.47;;;;;;;11.45;82.31;102145.97;5043459;28;20044;-84
2022/09/22 09:33:32;;;;;;;16.20;6.00;;;;;;;11.56;82.42;102153.47;5042954;28;20033;-85
2022/09/22 09:35:58;;;;;;;16.75;5.88;;;;;;;11.64;80.36;102145.81;5036510;28;20856;-84
2022/09/22 09:38:32;;;;;;;22.70;6.32;;;;;;;11.81;79.92;102147.53;5030530;28;20120;-84
2022/09/22 09:41:22;;;;;;;16.58;6.03;;;;;;;11.92;78.89;102146.91;5034478;28;20029;-84
2022/09/22 09:43:49;;;;;;;12.40;4.35;;;;;;;11.97;78.40;102156.50;5033525;28;20091;-84
2022/09/22 09:46:31;;;;;;;18.58;6.35;;;;;;;12.14;79.67;102147.44;5032236;28;20029;-84
2022/09/22 09:49:04;;;;;;;15.20;5.20;;;;;;;12.25;78.63;102138.69;5032451;28;20376;-83
2022/09/22 09:51:34;;;;;;;15.07;5.25;;;;;;;12.28;77.33;102137.66;5036515;28;20021;-85
2022/09/22 09:54:04;;;;;;;18.20;5.95;;;;;;;12.33;77.40;102141.81;5028530;28;20067;-84
2022/09/22 09:56:30;;;;;;;16.25;5.28;;;;;;;12.36;77.43;102143.47;5028121;28;20025;-84
2022/09/22 10:01:49;;;;;;;13.65;5.43;;;;;;;12.61;75.50;102144.63;5032308;28;20048;-84
2022/09/22 10:04:29;;;;;;;13.60;5.33;;;;;;;12.75;76.00;102139.25;5034442;28;20533;-84
2022/09/22 10:07:12;;;;;;;17.00;5.78;;;;;;;12.85;77.68;102137.72;5042072;28;20120;-84
2022/09/22 10:09:39;;;;;;;14.80;5.30;;;;;;;12.95;74.96;102132.63;5037848;28;20032;-84
2022/09/22 10:12:05;;;;;;;16.27;5.03;;;;;;;13.04;71.93;102128.50;5033651;28;20041;-84
2022/09/22 10:14:33;;;;;;;14.93;5.40;;;;;;;13.09;74.12;102132.63;5033338;28;20120;-84
2022/09/22 10:16:59;;;;;;;14.40;5.05;;;;;;;13.17;73.26;102129.44;5028374;28;20021;-84
2022/09/22 10:19:33;;;;;;;15.43;5.57;;;;;;;13.25;74.31;102132.53;5029787;28;20026;-84
2022/09/22 10:22:26;;;;;;;16.08;6.53;;;;;;;13.33;74.47;102131.16;5033250;28;20575;-84
2022/09/22 10:24:55;;;;;;;16.92;5.65;;;;;;;13.34;73.52;102123.00;5031199;28;20020;-84
2022/09/22 10:27:23;;;;;;;13.25;4.78;;;;;;;13.42;69.09;102127.88;5029552;28;20037;-84
2022/09/22 10:30:21;;;;;;;13.57;4.72;;;;;;;13.50;72.43;102127.38;5037028;28;20074;-82
2022/09/22 10:33:21;;;;;;;13.75;4.53;;;;;;;13.57;73.95;102116.09;5042622;28;20025;-84
2022/09/22 10:36:09;;;;;;;14.45;5.22;;;;;;;13.66;72.57;102119.16;5036462;28;20041;-84
2022/09/22 10:38:38;;;;;;;15.52;5.90;;;;;;;13.74;67.94;102116.81;5044732;28;20021;-84
2022/09/22 10:41:18;;;;;;;17.30;6.80;;;;;;;13.79;68.54;102095.75;5046545;28;20129;-84
2022/09/22 10:43:54;;;;;;;15.63;5.15;;;;;;;13.88;69.45;102103.25;5040552;28;20175;-84
2022/09/22 10:46:36;;;;;;;14.40;4.85;;;;;;;13.94;69.30;102097.41;5039106;28;20469;-84
2022/09/22 10:49:10;;;;;;;13.73;4.45;;;;;;;14.02;68.31;102101.44;5033507;28;20135;-84
2022/09/22 10:51:56;;;;;;;10.70;4.13;;;;;;;14.05;68.15;102091.28;5034779;28;20551;-82
2022/09/22 10:54:27;;;;;;;13.32;3.78;;;;;;;14.17;64.23;102097.69;5036248;28;20033;-84
2022/09/22 10:56:58;;;;;;;12.00;3.75;;;;;;;14.24;62.12;102098.97;5044120;28;20473;-84
2022/09/22 10:59:45;;;;;;;10.95;3.72;;;;;;;14.26;65.09;102096.19;5033797;28;20061;-84
2022/09/22 11:02:14;;;;;;;11.88;3.65;;;;;;;14.38;64.23;102100.75;5040869;28;20090;-84
2022/09/22 11:05:03;;;;;;;13.93;4.05;;;;;;;14.42;64.72;102090.56;5035084;28;20503;-84
2022/09/22 11:14:02;;;;;;;12.65;4.22;;;;;;;14.52;63.99;102078.13;5031432;28;20076;-84
2022/09/22 11:17:18;;;;;;;11.10;3.50;;;;;;;14.58;65.03;102084.94;5031464;28;20030;-84
2022/09/22 11:20:05;;;;;;;11.27;3.50;;;;;;;14.56;64.55;102076.94;5002422;28;20417;-84
2022/09/22 11:23:08;;;;;;;6.78;2.80;;;;;;;14.62;64.34;102078.38;5038104;28;20055;-84
2022/09/22 11:26:05;;;;;;;9.68;3.15;;;;;;;14.68;62.77;102081.53;5031631;28;20465;-84
2022/09/22 11:28:52;;;;;;;9.30;2.78;;;;;;;14.71;62.06;102080.44;5040087;28;20049;-84
2022/09/22 11:31:36;;;;;;;12.57;3.05;;;;;;;14.76;62.38;102077.38;5041135;28;20475;-84
2022/09/22 11:34:29;;;;;;;6.28;2.97;;;;;;;14.79;62.84;102077.19;5043012;28;20116;-84
2022/09/22 11:37:24;;;;;;;7.60;2.85;;;;;;;14.91;61.72;102064.63;5041085;28;20025;-84
2022/09/22 11:39:56;;;;;;;9.00;2.83;;;;;;;14.89;61.94;102072.84;5037529;28;20068;-84
2022/09/22 11:43:15;;;;;;;9.13;3.05;;;;;;;14.85;62.96;102066.78;5038405;28;20063;-84
2022/09/22 11:45:40;;;;;;;;;;;;;;;14.83;64.93;102055.22;5012615;28;20048;-84
2022/09/22 11:48:11;;;;;;;5.95;2.50;;;;;;;14.85;59.92;102055.09;5028309;28;20412;-84
2022/09/22 11:50:43;;;;;;;9.48;2.97;;;;;;;14.97;60.07;102054.19;5016038;28;20464;-84